sensor_id;sensor_type;location;lat;lon;timestamp;P1;durP1;ratioP1;P2;durP2;ratioP2
18983;SDS011;9626;52.552;13.436;2023-10-09T00:00:05;2.90;;;1.97;;
18983;SDS011;9626;52.552;13.436;2023-10-09T00:02:50;2.97;;;2.20;;
18983;SDS011;9626;52.552;13.436;2023-10-09T00:05:19;4.47;;;2.17;;
18983;SDS011;9626;52.552;13.436;2023-10-09T00:07:53;3.97;;;2.27;;
18983;SDS011;9626;52.552;13.436;2023-10-09T00:10:21;2.73;;;2.00;;
18983;SDS011;9626;52.552;13.436;2023-10-09T00:12:47;2.90;;;1.90;;
18983;SDS011;9626;52.552;13.436;2023-10-09T00:15:14;3.63;;;1.97;;
18983;SDS011;9626;52.552;13.436;2023-10-09T00:17:43;3.37;;;2.33;;
18983;SDS011;9626;52.552;13.436;2023-10-09T00:20:12;4.90;;;2.23;;
18983;SDS011;9626;52.552;13.436;2023-10-09T00:22:44;3.30;;;2.27;;
18983;SDS011;9626;52.552;13.436;2023-10-09T00:25:12;5.47;;;2.20;;
18983;SDS011;9626;52.552;13.436;2023-10-09T00:27:41;2.87;;;2.17;;
18983;SDS011;9626;52.552;13.436;2023-10-09T00:30:09;4.60;;;2.60;;
18983;SDS011;9626;52.552;13.436;2023-10-09T00:32:41;4.90;;;2.50;;
18983;SDS011;9626;52.552;13.436;2023-10-09T00:35:09;4.87;;;2.60;;
18983;SDS011;9626;52.552;13.436;2023-10-09T00:37:53;8.90;;;3.67;;
18983;SDS011;9626;52.552;13.436;2023-10-09T00:40:31;4.33;;;2.80;;
18983;SDS011;9626;52.552;13.436;2023-10-09T00:43:01;3.33;;;2.27;;
18983;SDS011;9626;52.552;13.436;2023-10-09T00:45:36;4.00;;;2.47;;
18983;SDS011;9626;52.552;13.436;2023-10-09T00:48:06;5.03;;;2.67;;
18983;SDS011;9626;52.552;13.436;2023-10-09T00:50:34;8.93;;;2.60;;
18983;SDS011;9626;52.552;13.436;2023-10-09T00:53:05;3.93;;;2.87;;
18983;SDS011;9626;52.552;13.436;2023-10-09T00:55:43;3.20;;;2.37;;
18983;SDS011;9626;52.552;13.436;2023-10-09T00:58:11;5.13;;;2.50;;
18983;SDS011;9626;52.552;13.436;2023-10-09T01:00:40;6.23;;;2.33;;
18983;SDS011;9626;52.552;13.436;2023-10-09T01:03:10;3.13;;;2.30;;
18983;SDS011;9626;52.552;13.436;2023-10-09T01:05:54;4.60;;;2.50;;
18983;SDS011;9626;52.552;13.436;2023-10-09T01:08:22;8.10;;;2.33;;
18983;SDS011;9626;52.552;13.436;2023-10-09T01:11:19;3.77;;;2.70;;
18983;SDS011;9626;52.552;13.436;2023-10-09T01:13:47;3.57;;;2.50;;
18983;SDS011;9626;52.552;13.436;2023-10-09T01:16:14;3.87;;;2.50;;
18983;SDS011;9626;52.552;13.436;2023-10-09T01:18:45;4.40;;;2.33;;
18983;SDS011;9626;52.552;13.436;2023-10-09T01:21:17;6.83;;;2.57;;
18983;SDS011;9626;52.552;13.436;2023-10-09T01:23:46;3.17;;;2.20;;
18983;SDS011;9626;52.552;13.436;2023-10-09T01:26:28;4.50;;;2.43;;
18983;SDS011;9626;52.552;13.436;2023-10-09T01:29:22;3.43;;;2.27;;
18983;SDS011;9626;52.552;13.436;2023-10-09T01:31:53;2.70;;;2.10;;
18983;SDS011;9626;52.552;13.436;2023-10-09T01:34:24;4.47;;;2.30;;
18983;SDS011;9626;52.552;13.436;2023-10-09T01:37:04;4.63;;;2.33;;
18983;SDS011;9626;52.552;13.436;2023-10-09T01:39:40;3.63;;;2.27;;
18983;SDS011;9626;52.552;13.436;2023-10-09T01:42:07;3.57;;;2.13;;
18983;SDS011;9626;52.552;13.436;2023-10-09T01:44:34;4.57;;;2.60;;
18983;SDS011;9626;52.552;13.436;2023-10-09T01:47:04;6.13;;;2.33;;
18983;SDS011;9626;52.552;13.436;2023-10-09T01:49:34;2.70;;;1.80;;
18983;SDS011;9626;52.552;13.436;2023-10-09T01:52:03;5.00;;;1.93;;
18983;SDS011;9626;52.552;13.436;2023-10-09T01:54:34;2.17;;;1.73;;
18983;SDS011;9626;52.552;13.436;2023-10-09T01:57:04;3.57;;;2.27;;
18983;SDS011;9626;52.552;13.436;2023-10-09T01:59:41;3.77;;;2.43;;
18983;SDS011;9626;52.552;13.436;2023-10-09T02:02:15;3.47;;;2.20;;
18983;SDS011;9626;52.552;13.436;2023-10-09T02:04:52;3.57;;;2.33;;
18983;SDS011;9626;52.552;13.436;2023-10-09T02:07:38;4.60;;;2.30;;
18983;SDS011;9626;52.552;13.436;2023-10-09T02:10:17;3.57;;;2.20;;
18983;SDS011;9626;52.552;13.436;2023-10-09T02:13:05;3.67;;;2.17;;
18983;SDS011;9626;52.552;13.436;2023-10-09T02:15:36;2.33;;;1.87;;
18983;SDS011;9626;52.552;13.436;2023-10-09T02:20:53;4.73;;;2.57;;
18983;SDS011;9626;52.552;13.436;2023-10-09T02:23:25;3.00;;;1.93;;
18983;SDS011;9626;52.552;13.436;2023-10-09T02:26:04;3.93;;;2.23;;
18983;SDS011;9626;52.552;13.436;2023-10-09T02:28:32;3.87;;;1.97;;
18983;SDS011;9626;52.552;13.436;2023-10-09T02:31:08;2.93;;;2.27;;
18983;SDS011;9626;52.552;13.436;2023-10-09T02:33:36;4.07;;;2.30;;
18983;SDS011;9626;52.552;13.436;2023-10-09T02:36:07;5.50;;;2.60;;
18983;SDS011;9626;52.552;13.436;2023-10-09T02:38:34;5.27;;;2.50;;
18983;SDS011;9626;52.552;13.436;2023-10-09T02:41:03;4.30;;;2.63;;
18983;SDS011;9626;52.552;13.436;2023-10-09T02:43:30;4.73;;;2.40;;
18983;SDS011;9626;52.552;13.436;2023-10-09T02:46:01;6.80;;;2.13;;
18983;SDS011;9626;52.552;13.436;2023-10-09T02:48:46;7.20;;;2.93;;
18983;SDS011;9626;52.552;13.436;2023-10-09T02:51:22;3.53;;;2.67;;
18983;SDS011;9626;52.552;13.436;2023-10-09T02:53:53;3.70;;;2.90;;
18983;SDS011;9626;52.552;13.436;2023-10-09T02:56:20;3.83;;;2.80;;
18983;SDS011;9626;52.552;13.436;2023-10-09T02:59:05;5.17;;;3.17;;
18983;SDS011;9626;52.552;13.436;2023-10-09T03:01:38;5.10;;;3.40;;
18983;SDS011;9626;52.552;13.436;2023-10-09T03:04:04;5.03;;;2.90;;
18983;SDS011;9626;52.552;13.436;2023-10-09T03:06:31;5.23;;;2.90;;
18983;SDS011;9626;52.552;13.436;2023-10-09T03:09:00;5.13;;;3.10;;
18983;SDS011;9626;52.552;13.436;2023-10-09T03:11:27;6.27;;;3.07;;
18983;SDS011;9626;52.552;13.436;2023-10-09T03:13:53;4.27;;;2.80;;
18983;SDS011;9626;52.552;13.436;2023-10-09T03:16:20;5.03;;;3.03;;
18983;SDS011;9626;52.552;13.436;2023-10-09T03:18:47;6.60;;;2.90;;
18983;SDS011;9626;52.552;13.436;2023-10-09T03:21:15;3.97;;;2.77;;
18983;SDS011;9626;52.552;13.436;2023-10-09T03:23:43;6.00;;;3.40;;
18983;SDS011;9626;52.552;13.436;2023-10-09T03:26:15;4.77;;;3.30;;
18983;SDS011;9626;52.552;13.436;2023-10-09T03:28:45;4.67;;;2.80;;
18983;SDS011;9626;52.552;13.436;2023-10-09T03:31:11;5.33;;;3.30;;
18983;SDS011;9626;52.552;13.436;2023-10-09T03:33:38;5.27;;;2.90;;
18983;SDS011;9626;52.552;13.436;2023-10-09T03:36:05;5.00;;;3.30;;
18983;SDS011;9626;52.552;13.436;2023-10-09T03:38:38;4.30;;;2.93;;
18983;SDS011;9626;52.552;13.436;2023-10-09T03:41:06;5.43;;;2.90;;
18983;SDS011;9626;52.552;13.436;2023-10-09T03:43:33;4.67;;;2.93;;
18983;SDS011;9626;52.552;13.436;2023-10-09T03:46:10;4.00;;;3.00;;
18983;SDS011;9626;52.552;13.436;2023-10-09T03:48:49;9.17;;;3.70;;
18983;SDS011;9626;52.552;13.436;2023-10-09T03:51:18;7.57;;;3.30;;
18983;SDS011;9626;52.552;13.436;2023-10-09T03:53:47;5.70;;;2.90;;
18983;SDS011;9626;52.552;13.436;2023-10-09T03:56:14;4.33;;;2.77;;
18983;SDS011;9626;52.552;13.436;2023-10-09T03:58:45;5.83;;;2.80;;
18983;SDS011;9626;52.552;13.436;2023-10-09T04:01:12;4.53;;;2.90;;
18983;SDS011;9626;52.552;13.436;2023-10-09T04:03:49;4.50;;;3.20;;
18983;SDS011;9626;52.552;13.436;2023-10-09T04:06:21;5.67;;;2.87;;
18983;SDS011;9626;52.552;13.436;2023-10-09T04:08:48;5.63;;;2.77;;
18983;SDS011;9626;52.552;13.436;2023-10-09T04:11:14;4.63;;;2.70;;
18983;SDS011;9626;52.552;13.436;2023-10-09T04:13:48;5.03;;;2.90;;
18983;SDS011;9626;52.552;13.436;2023-10-09T04:16:25;5.40;;;3.20;;
18983;SDS011;9626;52.552;13.436;2023-10-09T04:18:57;4.87;;;2.50;;
18983;SDS011;9626;52.552;13.436;2023-10-09T04:21:25;5.33;;;3.20;;
18983;SDS011;9626;52.552;13.436;2023-10-09T04:23:54;5.13;;;3.00;;
18983;SDS011;9626;52.552;13.436;2023-10-09T04:26:36;4.53;;;3.03;;
18983;SDS011;9626;52.552;13.436;2023-10-09T04:29:03;6.37;;;3.20;;
18983;SDS011;9626;52.552;13.436;2023-10-09T04:31:29;5.57;;;3.00;;
18983;SDS011;9626;52.552;13.436;2023-10-09T04:34:00;5.20;;;2.87;;
18983;SDS011;9626;52.552;13.436;2023-10-09T04:36:49;4.57;;;2.70;;
18983;SDS011;9626;52.552;13.436;2023-10-09T04:39:17;5.70;;;2.93;;
18983;SDS011;9626;52.552;13.436;2023-10-09T04:41:55;3.77;;;3.07;;
18983;SDS011;9626;52.552;13.436;2023-10-09T04:44:41;3.90;;;3.00;;
18983;SDS011;9626;52.552;13.436;2023-10-09T04:47:26;3.97;;;2.73;;
18983;SDS011;9626;52.552;13.436;2023-10-09T04:50:08;4.03;;;2.77;;
18983;SDS011;9626;52.552;13.436;2023-10-09T04:53:01;4.87;;;3.20;;
18983;SDS011;9626;52.552;13.436;2023-10-09T04:55:48;4.03;;;3.20;;
18983;SDS011;9626;52.552;13.436;2023-10-09T04:58:20;6.13;;;3.43;;
18983;SDS011;9626;52.552;13.436;2023-10-09T05:00:54;5.77;;;2.97;;
18983;SDS011;9626;52.552;13.436;2023-10-09T05:03:25;4.57;;;3.13;;
18983;SDS011;9626;52.552;13.436;2023-10-09T05:05:52;3.53;;;2.90;;
18983;SDS011;9626;52.552;13.436;2023-10-09T05:08:24;2.93;;;2.60;;
18983;SDS011;9626;52.552;13.436;2023-10-09T05:10:55;5.00;;;2.83;;
18983;SDS011;9626;52.552;13.436;2023-10-09T05:16:10;6.17;;;3.00;;
18983;SDS011;9626;52.552;13.436;2023-10-09T05:18:55;4.43;;;3.23;;
18983;SDS011;9626;52.552;13.436;2023-10-09T05:21:25;4.20;;;3.27;;
18983;SDS011;9626;52.552;13.436;2023-10-09T05:23:59;6.53;;;3.57;;
18983;SDS011;9626;52.552;13.436;2023-10-09T05:26:43;4.30;;;2.80;;
18983;SDS011;9626;52.552;13.436;2023-10-09T05:29:10;4.77;;;2.87;;
18983;SDS011;9626;52.552;13.436;2023-10-09T05:31:50;6.03;;;2.83;;
18983;SDS011;9626;52.552;13.436;2023-10-09T05:34:29;5.63;;;3.30;;
18983;SDS011;9626;52.552;13.436;2023-10-09T05:37:14;9.00;;;3.23;;
18983;SDS011;9626;52.552;13.436;2023-10-09T05:39:48;3.43;;;2.77;;
18983;SDS011;9626;52.552;13.436;2023-10-09T05:42:30;5.27;;;3.10;;
18983;SDS011;9626;52.552;13.436;2023-10-09T05:45:03;7.50;;;3.07;;
18983;SDS011;9626;52.552;13.436;2023-10-09T05:47:51;6.07;;;3.57;;
18983;SDS011;9626;52.552;13.436;2023-10-09T05:52:56;5.00;;;3.30;;
18983;SDS011;9626;52.552;13.436;2023-10-09T05:55:30;6.20;;;3.80;;
18983;SDS011;9626;52.552;13.436;2023-10-09T05:58:36;7.97;;;3.80;;
18983;SDS011;9626;52.552;13.436;2023-10-09T06:01:28;5.40;;;3.37;;
18983;SDS011;9626;52.552;13.436;2023-10-09T06:04:14;5.00;;;3.00;;
18983;SDS011;9626;52.552;13.436;2023-10-09T06:06:45;5.27;;;3.17;;
18983;SDS011;9626;52.552;13.436;2023-10-09T06:09:31;3.80;;;2.63;;
18983;SDS011;9626;52.552;13.436;2023-10-09T06:12:15;4.00;;;2.90;;
18983;SDS011;9626;52.552;13.436;2023-10-09T06:15:00;5.20;;;2.77;;
18983;SDS011;9626;52.552;13.436;2023-10-09T06:17:52;4.63;;;3.13;;
18983;SDS011;9626;52.552;13.436;2023-10-09T06:20:25;5.33;;;2.80;;
18983;SDS011;9626;52.552;13.436;2023-10-09T06:23:10;5.27;;;2.90;;
18983;SDS011;9626;52.552;13.436;2023-10-09T06:25:42;4.33;;;2.80;;
18983;SDS011;9626;52.552;13.436;2023-10-09T06:28:17;5.03;;;2.97;;
18983;SDS011;9626;52.552;13.436;2023-10-09T06:30:58;4.80;;;2.87;;
18983;SDS011;9626;52.552;13.436;2023-10-09T06:33:44;4.97;;;2.90;;
18983;SDS011;9626;52.552;13.436;2023-10-09T06:36:30;9.60;;;3.37;;
18983;SDS011;9626;52.552;13.436;2023-10-09T06:38:56;5.33;;;3.13;;
18983;SDS011;9626;52.552;13.436;2023-10-09T06:41:41;7.40;;;3.00;;
18983;SDS011;9626;52.552;13.436;2023-10-09T06:44:13;5.40;;;2.83;;
18983;SDS011;9626;52.552;13.436;2023-10-09T06:46:59;7.47;;;3.17;;
18983;SDS011;9626;52.552;13.436;2023-10-09T06:49:33;5.10;;;3.20;;
18983;SDS011;9626;52.552;13.436;2023-10-09T06:52:02;5.10;;;3.70;;
18983;SDS011;9626;52.552;13.436;2023-10-09T06:54:41;4.93;;;3.27;;
18983;SDS011;9626;52.552;13.436;2023-10-09T06:57:16;4.83;;;3.20;;
18983;SDS011;9626;52.552;13.436;2023-10-09T07:00:02;4.37;;;3.30;;
18983;SDS011;9626;52.552;13.436;2023-10-09T07:03:02;4.80;;;3.30;;
18983;SDS011;9626;52.552;13.436;2023-10-09T07:05:37;5.67;;;3.20;;
18983;SDS011;9626;52.552;13.436;2023-10-09T07:08:24;5.00;;;3.57;;
18983;SDS011;9626;52.552;13.436;2023-10-09T07:11:05;4.73;;;2.73;;
18983;SDS011;9626;52.552;13.436;2023-10-09T07:13:49;4.73;;;3.50;;
18983;SDS011;9626;52.552;13.436;2023-10-09T07:16:20;3.60;;;2.97;;
18983;SDS011;9626;52.552;13.436;2023-10-09T07:18:49;5.77;;;3.30;;
18983;SDS011;9626;52.552;13.436;2023-10-09T07:21:15;5.40;;;2.90;;
18983;SDS011;9626;52.552;13.436;2023-10-09T07:23:52;4.20;;;3.10;;
18983;SDS011;9626;52.552;13.436;2023-10-09T07:26:22;6.80;;;3.50;;
18983;SDS011;9626;52.552;13.436;2023-10-09T07:29:03;5.10;;;3.00;;
18983;SDS011;9626;52.552;13.436;2023-10-09T07:31:56;5.47;;;3.40;;
18983;SDS011;9626;52.552;13.436;2023-10-09T07:34:38;6.07;;;3.50;;
18983;SDS011;9626;52.552;13.436;2023-10-09T07:37:30;6.17;;;3.53;;
18983;SDS011;9626;52.552;13.436;2023-10-09T07:39:56;5.93;;;3.27;;
18983;SDS011;9626;52.552;13.436;2023-10-09T07:42:23;6.60;;;3.47;;
18983;SDS011;9626;52.552;13.436;2023-10-09T07:45:13;5.07;;;3.20;;
18983;SDS011;9626;52.552;13.436;2023-10-09T07:47:48;5.03;;;3.03;;
18983;SDS011;9626;52.552;13.436;2023-10-09T07:50:36;4.23;;;3.30;;
18983;SDS011;9626;52.552;13.436;2023-10-09T07:53:15;3.90;;;2.97;;
18983;SDS011;9626;52.552;13.436;2023-10-09T07:55:45;5.13;;;3.37;;
18983;SDS011;9626;52.552;13.436;2023-10-09T07:58:20;4.23;;;3.17;;
18983;SDS011;9626;52.552;13.436;2023-10-09T08:00:54;4.57;;;3.50;;
18983;SDS011;9626;52.552;13.436;2023-10-09T08:03:24;6.97;;;3.27;;
18983;SDS011;9626;52.552;13.436;2023-10-09T08:05:51;8.00;;;3.70;;
18983;SDS011;9626;52.552;13.436;2023-10-09T08:08:19;6.07;;;3.43;;
18983;SDS011;9626;52.552;13.436;2023-10-09T08:11:11;7.27;;;3.70;;
18983;SDS011;9626;52.552;13.436;2023-10-09T08:13:55;5.77;;;3.77;;
18983;SDS011;9626;52.552;13.436;2023-10-09T08:16:22;6.17;;;3.10;;
18983;SDS011;9626;52.552;13.436;2023-10-09T08:18:50;4.27;;;3.20;;
18983;SDS011;9626;52.552;13.436;2023-10-09T08:21:18;6.63;;;3.27;;
18983;SDS011;9626;52.552;13.436;2023-10-09T08:24:07;5.40;;;3.07;;
18983;SDS011;9626;52.552;13.436;2023-10-09T08:26:53;6.20;;;3.33;;
18983;SDS011;9626;52.552;13.436;2023-10-09T08:29:39;5.67;;;4.17;;
18983;SDS011;9626;52.552;13.436;2023-10-09T08:32:12;6.03;;;4.30;;
18983;SDS011;9626;52.552;13.436;2023-10-09T08:34:44;5.23;;;4.20;;
18983;SDS011;9626;52.552;13.436;2023-10-09T08:37:19;5.20;;;3.77;;
18983;SDS011;9626;52.552;13.436;2023-10-09T08:39:50;6.77;;;4.00;;
18983;SDS011;9626;52.552;13.436;2023-10-09T08:42:16;7.40;;;3.80;;
18983;SDS011;9626;52.552;13.436;2023-10-09T08:44:43;5.00;;;3.40;;
18983;SDS011;9626;52.552;13.436;2023-10-09T08:47:10;5.27;;;3.73;;
18983;SDS011;9626;52.552;13.436;2023-10-09T08:49:37;4.63;;;3.20;;
18983;SDS011;9626;52.552;13.436;2023-10-09T08:52:05;5.60;;;3.20;;
18983;SDS011;9626;52.552;13.436;2023-10-09T08:54:31;6.17;;;3.37;;
18983;SDS011;9626;52.552;13.436;2023-10-09T08:57:00;4.90;;;3.07;;
18983;SDS011;9626;52.552;13.436;2023-10-09T08:59:26;4.53;;;3.30;;
18983;SDS011;9626;52.552;13.436;2023-10-09T09:01:53;4.00;;;2.70;;
18983;SDS011;9626;52.552;13.436;2023-10-09T09:04:35;4.43;;;3.80;;
18983;SDS011;9626;52.552;13.436;2023-10-09T09:07:06;5.20;;;2.90;;
18983;SDS011;9626;52.552;13.436;2023-10-09T09:09:57;5.77;;;3.40;;
18983;SDS011;9626;52.552;13.436;2023-10-09T09:12:31;4.33;;;2.90;;
18983;SDS011;9626;52.552;13.436;2023-10-09T09:15:03;4.70;;;3.30;;
18983;SDS011;9626;52.552;13.436;2023-10-09T09:17:32;6.13;;;3.20;;
18983;SDS011;9626;52.552;13.436;2023-10-09T09:19:59;3.83;;;3.20;;
18983;SDS011;9626;52.552;13.436;2023-10-09T09:22:26;4.57;;;3.63;;
18983;SDS011;9626;52.552;13.436;2023-10-09T09:24:59;5.90;;;3.37;;
18983;SDS011;9626;52.552;13.436;2023-10-09T09:27:44;9.83;;;3.97;;
18983;SDS011;9626;52.552;13.436;2023-10-09T09:30:31;7.37;;;3.73;;
18983;SDS011;9626;52.552;13.436;2023-10-09T09:33:00;5.67;;;3.50;;
18983;SDS011;9626;52.552;13.436;2023-10-09T09:35:56;8.30;;;4.33;;
18983;SDS011;9626;52.552;13.436;2023-10-09T09:38:24;5.27;;;4.27;;
18983;SDS011;9626;52.552;13.436;2023-10-09T09:40:54;5.20;;;3.83;;
18983;SDS011;9626;52.552;13.436;2023-10-09T09:43:23;5.97;;;3.90;;
18983;SDS011;9626;52.552;13.436;2023-10-09T09:45:51;4.47;;;3.50;;
18983;SDS011;9626;52.552;13.436;2023-10-09T09:48:22;5.50;;;2.97;;
18983;SDS011;9626;52.552;13.436;2023-10-09T09:50:49;7.17;;;3.43;;
18983;SDS011;9626;52.552;13.436;2023-10-09T09:53:19;7.47;;;3.67;;
18983;SDS011;9626;52.552;13.436;2023-10-09T09:55:52;4.27;;;3.67;;
18983;SDS011;9626;52.552;13.436;2023-10-09T09:58:26;6.37;;;3.40;;
18983;SDS011;9626;52.552;13.436;2023-10-09T10:01:08;7.87;;;3.17;;
18983;SDS011;9626;52.552;13.436;2023-10-09T10:03:47;4.23;;;3.23;;
18983;SDS011;9626;52.552;13.436;2023-10-09T10:06:17;6.27;;;3.17;;
18983;SDS011;9626;52.552;13.436;2023-10-09T10:08:47;5.10;;;3.33;;
18983;SDS011;9626;52.552;13.436;2023-10-09T10:14:11;4.37;;;2.87;;
18983;SDS011;9626;52.552;13.436;2023-10-09T10:19:59;3.70;;;3.10;;
18983;SDS011;9626;52.552;13.436;2023-10-09T10:22:46;4.97;;;2.93;;
18983;SDS011;9626;52.552;13.436;2023-10-09T10:25:32;4.50;;;3.03;;
18983;SDS011;9626;52.552;13.436;2023-10-09T10:30:56;5.23;;;3.20;;
18983;SDS011;9626;52.552;13.436;2023-10-09T10:33:26;5.33;;;3.40;;
18983;SDS011;9626;52.552;13.436;2023-10-09T10:36:12;7.07;;;3.50;;
18983;SDS011;9626;52.552;13.436;2023-10-09T10:41:32;4.57;;;2.70;;
18983;SDS011;9626;52.552;13.436;2023-10-09T10:44:28;6.47;;;3.23;;
18983;SDS011;9626;52.552;13.436;2023-10-09T10:47:07;3.77;;;2.80;;
18983;SDS011;9626;52.552;13.436;2023-10-09T10:49:59;4.00;;;3.23;;
18983;SDS011;9626;52.552;13.436;2023-10-09T10:52:45;4.97;;;2.83;;
18983;SDS011;9626;52.552;13.436;2023-10-09T10:55:23;5.13;;;2.80;;
18983;SDS011;9626;52.552;13.436;2023-10-09T10:58:01;7.20;;;3.40;;
18983;SDS011;9626;52.552;13.436;2023-10-09T11:00:35;4.93;;;2.80;;
18983;SDS011;9626;52.552;13.436;2023-10-09T11:03:20;7.57;;;3.33;;
18983;SDS011;9626;52.552;13.436;2023-10-09T11:05:55;4.40;;;3.40;;
18983;SDS011;9626;52.552;13.436;2023-10-09T11:08:42;4.30;;;2.77;;
18983;SDS011;9626;52.552;13.436;2023-10-09T11:11:23;6.13;;;3.10;;
18983;SDS011;9626;52.552;13.436;2023-10-09T11:13:49;4.13;;;2.73;;
18983;SDS011;9626;52.552;13.436;2023-10-09T11:16:25;3.33;;;2.67;;
18983;SDS011;9626;52.552;13.436;2023-10-09T11:19:00;5.60;;;3.37;;
18983;SDS011;9626;52.552;13.436;2023-10-09T11:21:38;4.27;;;3.20;;
18983;SDS011;9626;52.552;13.436;2023-10-09T11:24:08;4.17;;;3.17;;
18983;SDS011;9626;52.552;13.436;2023-10-09T11:26:50;5.20;;;3.10;;
18983;SDS011;9626;52.552;13.436;2023-10-09T11:29:21;5.97;;;3.20;;
18983;SDS011;9626;52.552;13.436;2023-10-09T11:32:07;4.67;;;3.07;;
18983;SDS011;9626;52.552;13.436;2023-10-09T11:34:48;4.30;;;2.90;;
18983;SDS011;9626;52.552;13.436;2023-10-09T11:37:18;5.43;;;3.93;;
18983;SDS011;9626;52.552;13.436;2023-10-09T11:39:54;5.87;;;3.40;;
18983;SDS011;9626;52.552;13.436;2023-10-09T11:42:22;6.00;;;4.30;;
18983;SDS011;9626;52.552;13.436;2023-10-09T11:45:24;5.57;;;3.67;;
18983;SDS011;9626;52.552;13.436;2023-10-09T11:47:55;4.70;;;3.50;;
18983;SDS011;9626;52.552;13.436;2023-10-09T11:50:40;4.87;;;3.57;;
18983;SDS011;9626;52.552;13.436;2023-10-09T11:53:09;3.47;;;3.17;;
18983;SDS011;9626;52.552;13.436;2023-10-09T11:55:48;9.30;;;3.73;;
18983;SDS011;9626;52.552;13.436;2023-10-09T11:58:18;3.83;;;3.47;;
18983;SDS011;9626;52.552;13.436;2023-10-09T12:00:51;6.83;;;3.60;;
18983;SDS011;9626;52.552;13.436;2023-10-09T12:03:31;4.73;;;3.60;;
18983;SDS011;9626;52.552;13.436;2023-10-09T12:05:58;4.53;;;3.70;;
18983;SDS011;9626;52.552;13.436;2023-10-09T12:08:38;5.50;;;4.17;;
18983;SDS011;9626;52.552;13.436;2023-10-09T12:11:07;6.00;;;4.27;;
18983;SDS011;9626;52.552;13.436;2023-10-09T12:13:37;5.57;;;4.10;;
18983;SDS011;9626;52.552;13.436;2023-10-09T12:16:04;5.70;;;3.83;;
18983;SDS011;9626;52.552;13.436;2023-10-09T12:18:36;6.77;;;3.97;;
18983;SDS011;9626;52.552;13.436;2023-10-09T12:21:05;6.27;;;4.47;;
18983;SDS011;9626;52.552;13.436;2023-10-09T12:23:32;5.00;;;4.43;;
18983;SDS011;9626;52.552;13.436;2023-10-09T12:26:06;14.10;;;5.63;;
18983;SDS011;9626;52.552;13.436;2023-10-09T12:28:40;5.87;;;5.17;;
18983;SDS011;9626;52.552;13.436;2023-10-09T12:31:14;5.10;;;4.60;;
18983;SDS011;9626;52.552;13.436;2023-10-09T12:33:41;5.73;;;5.10;;
18983;SDS011;9626;52.552;13.436;2023-10-09T12:36:13;8.87;;;5.37;;
18983;SDS011;9626;52.552;13.436;2023-10-09T12:38:49;5.30;;;4.80;;
18983;SDS011;9626;52.552;13.436;2023-10-09T12:41:20;6.40;;;5.13;;
18983;SDS011;9626;52.552;13.436;2023-10-09T12:43:59;5.47;;;4.80;;
18983;SDS011;9626;52.552;13.436;2023-10-09T12:46:25;6.40;;;4.93;;
18983;SDS011;9626;52.552;13.436;2023-10-09T12:48:51;7.33;;;5.00;;
18983;SDS011;9626;52.552;13.436;2023-10-09T12:51:20;7.27;;;5.43;;
18983;SDS011;9626;52.552;13.436;2023-10-09T12:53:51;8.17;;;5.47;;
18983;SDS011;9626;52.552;13.436;2023-10-09T12:56:23;7.93;;;4.90;;
18983;SDS011;9626;52.552;13.436;2023-10-09T12:59:04;7.93;;;5.23;;
18983;SDS011;9626;52.552;13.436;2023-10-09T13:01:30;8.03;;;5.20;;
18983;SDS011;9626;52.552;13.436;2023-10-09T13:04:08;6.20;;;5.17;;
18983;SDS011;9626;52.552;13.436;2023-10-09T13:06:39;6.03;;;5.43;;
18983;SDS011;9626;52.552;13.436;2023-10-09T13:09:12;7.47;;;5.63;;
18983;SDS011;9626;52.552;13.436;2023-10-09T13:11:39;7.90;;;6.13;;
18983;SDS011;9626;52.552;13.436;2023-10-09T13:14:09;6.90;;;6.20;;
18983;SDS011;9626;52.552;13.436;2023-10-09T13:16:47;9.33;;;6.73;;
18983;SDS011;9626;52.552;13.436;2023-10-09T13:19:16;7.50;;;6.30;;
18983;SDS011;9626;52.552;13.436;2023-10-09T13:21:43;8.37;;;5.87;;
18983;SDS011;9626;52.552;13.436;2023-10-09T13:24:10;7.23;;;5.93;;
18983;SDS011;9626;52.552;13.436;2023-10-09T13:26:44;7.43;;;6.30;;
18983;SDS011;9626;52.552;13.436;2023-10-09T13:29:12;8.87;;;7.43;;
18983;SDS011;9626;52.552;13.436;2023-10-09T13:31:39;6.77;;;6.10;;
18983;SDS011;9626;52.552;13.436;2023-10-09T13:34:12;7.83;;;6.07;;
18983;SDS011;9626;52.552;13.436;2023-10-09T13:36:41;6.80;;;5.97;;
18983;SDS011;9626;52.552;13.436;2023-10-09T13:39:19;6.40;;;5.70;;
18983;SDS011;9626;52.552;13.436;2023-10-09T13:44:25;8.00;;;6.53;;
18983;SDS011;9626;52.552;13.436;2023-10-09T13:46:58;7.57;;;6.63;;
18983;SDS011;9626;52.552;13.436;2023-10-09T13:49:44;9.37;;;6.00;;
18983;SDS011;9626;52.552;13.436;2023-10-09T13:52:11;9.17;;;6.30;;
18983;SDS011;9626;52.552;13.436;2023-10-09T13:54:44;7.30;;;6.07;;
18983;SDS011;9626;52.552;13.436;2023-10-09T13:57:13;7.37;;;6.03;;
18983;SDS011;9626;52.552;13.436;2023-10-09T13:59:40;7.97;;;6.90;;
18983;SDS011;9626;52.552;13.436;2023-10-09T14:02:15;7.37;;;6.63;;
18983;SDS011;9626;52.552;13.436;2023-10-09T14:04:47;10.73;;;9.30;;
18983;SDS011;9626;52.552;13.436;2023-10-09T14:07:13;8.80;;;7.87;;
18983;SDS011;9626;52.552;13.436;2023-10-09T14:09:43;9.07;;;7.60;;
18983;SDS011;9626;52.552;13.436;2023-10-09T14:12:09;11.77;;;10.63;;
18983;SDS011;9626;52.552;13.436;2023-10-09T14:14:40;10.50;;;8.70;;
18983;SDS011;9626;52.552;13.436;2023-10-09T14:17:20;10.10;;;7.40;;
18983;SDS011;9626;52.552;13.436;2023-10-09T14:19:51;8.03;;;6.73;;
18983;SDS011;9626;52.552;13.436;2023-10-09T14:22:18;8.47;;;6.87;;
18983;SDS011;9626;52.552;13.436;2023-10-09T14:24:48;8.73;;;6.40;;
18983;SDS011;9626;52.552;13.436;2023-10-09T14:27:28;8.10;;;7.10;;
18983;SDS011;9626;52.552;13.436;2023-10-09T14:30:00;39.43;;;27.60;;
18983;SDS011;9626;52.552;13.436;2023-10-09T14:32:27;10.80;;;8.37;;
18983;SDS011;9626;52.552;13.436;2023-10-09T14:35:03;8.87;;;7.13;;
18983;SDS011;9626;52.552;13.436;2023-10-09T14:37:38;13.20;;;7.80;;
18983;SDS011;9626;52.552;13.436;2023-10-09T14:40:05;9.90;;;8.10;;
18983;SDS011;9626;52.552;13.436;2023-10-09T14:42:41;9.73;;;7.83;;
18983;SDS011;9626;52.552;13.436;2023-10-09T14:45:11;9.97;;;8.83;;
18983;SDS011;9626;52.552;13.436;2023-10-09T14:47:41;8.20;;;7.30;;
18983;SDS011;9626;52.552;13.436;2023-10-09T14:50:08;9.77;;;7.30;;
18983;SDS011;9626;52.552;13.436;2023-10-09T14:52:34;8.40;;;6.70;;
18983;SDS011;9626;52.552;13.436;2023-10-09T14:55:07;11.27;;;7.17;;
18983;SDS011;9626;52.552;13.436;2023-10-09T14:57:35;8.10;;;7.10;;
18983;SDS011;9626;52.552;13.436;2023-10-09T15:00:01;8.17;;;6.77;;
18983;SDS011;9626;52.552;13.436;2023-10-09T15:02:33;8.30;;;6.97;;
18983;SDS011;9626;52.552;13.436;2023-10-09T15:04:59;7.80;;;7.00;;
18983;SDS011;9626;52.552;13.436;2023-10-09T15:07:26;8.87;;;7.60;;
18983;SDS011;9626;52.552;13.436;2023-10-09T15:09:54;9.77;;;7.13;;
18983;SDS011;9626;52.552;13.436;2023-10-09T15:12:20;9.13;;;7.60;;
18983;SDS011;9626;52.552;13.436;2023-10-09T15:14:48;7.80;;;7.00;;
18983;SDS011;9626;52.552;13.436;2023-10-09T15:17:19;8.07;;;6.60;;
18983;SDS011;9626;52.552;13.436;2023-10-09T15:19:45;9.17;;;7.80;;
18983;SDS011;9626;52.552;13.436;2023-10-09T15:22:11;8.30;;;7.00;;
18983;SDS011;9626;52.552;13.436;2023-10-09T15:24:37;8.53;;;7.63;;
18983;SDS011;9626;52.552;13.436;2023-10-09T15:27:03;11.20;;;8.03;;
18983;SDS011;9626;52.552;13.436;2023-10-09T15:29:31;10.90;;;7.80;;
18983;SDS011;9626;52.552;13.436;2023-10-09T15:31:59;8.03;;;7.00;;
18983;SDS011;9626;52.552;13.436;2023-10-09T15:34:40;9.10;;;7.13;;
18983;SDS011;9626;52.552;13.436;2023-10-09T15:37:09;8.40;;;6.23;;
18983;SDS011;9626;52.552;13.436;2023-10-09T15:39:35;7.40;;;6.63;;
18983;SDS011;9626;52.552;13.436;2023-10-09T15:42:02;9.30;;;6.97;;
18983;SDS011;9626;52.552;13.436;2023-10-09T15:44:32;8.43;;;7.30;;
18983;SDS011;9626;52.552;13.436;2023-10-09T15:47:05;9.20;;;7.37;;
18983;SDS011;9626;52.552;13.436;2023-10-09T15:49:34;8.53;;;7.40;;